sensor_id;sensor_type;location;lat;lon;timestamp;P1;durP1;ratioP1;P2;durP2;ratioP2
13660;SDS011;6903;49.480;11.102;2022-09-12T00:02:10;58.57;;;39.27;;
13660;SDS011;6903;49.480;11.102;2022-09-12T00:04:35;54.53;;;36.10;;
13660;SDS011;6903;49.480;11.102;2022-09-12T00:07:00;49.43;;;33.53;;
13660;SDS011;6903;49.480;11.102;2022-09-12T00:09:26;47.90;;;32.17;;
13660;SDS011;6903;49.480;11.102;2022-09-12T00:11:51;49.63;;;32.77;;
13660;SDS011;6903;49.480;11.102;2022-09-12T00:14:17;47.63;;;31.03;;
13660;SDS011;6903;49.480;11.102;2022-09-12T00:16:43;46.43;;;31.87;;
13660;SDS011;6903;49.480;11.102;2022-09-12T00:19:09;44.07;;;30.07;;
13660;SDS011;6903;49.480;11.102;2022-09-12T00:21:36;47.63;;;31.40;;
13660;SDS011;6903;49.480;11.102;2022-09-12T00:24:02;39.27;;;27.33;;
13660;SDS011;6903;49.480;11.102;2022-09-12T00:26:28;38.27;;;25.90;;
13660;SDS011;6903;49.480;11.102;2022-09-12T00:28:55;40.63;;;26.03;;
13660;SDS011;6903;49.480;11.102;2022-09-12T00:31:21;36.20;;;23.77;;
13660;SDS011;6903;49.480;11.102;2022-09-12T00:33:48;44.30;;;30.13;;
13660;SDS011;6903;49.480;11.102;2022-09-12T00:36:14;52.10;;;33.40;;
13660;SDS011;6903;49.480;11.102;2022-09-12T00:38:42;50.53;;;33.43;;
13660;SDS011;6903;49.480;11.102;2022-09-12T00:41:27;57.27;;;35.63;;
13660;SDS011;6903;49.480;11.102;2022-09-12T00:43:56;57.87;;;36.63;;
13660;SDS011;6903;49.480;11.102;2022-09-12T00:51:56;56.13;;;35.67;;
13660;SDS011;6903;49.480;11.102;2022-09-12T00:54:29;52.23;;;33.77;;
13660;SDS011;6903;49.480;11.102;2022-09-12T00:57:01;44.50;;;29.50;;
13660;SDS011;6903;49.480;11.102;2022-09-12T00:59:31;42.97;;;26.80;;
13660;SDS011;6903;49.480;11.102;2022-09-12T01:02:01;40.63;;;27.30;;
13660;SDS011;6903;49.480;11.102;2022-09-12T01:04:27;41.90;;;27.93;;
13660;SDS011;6903;49.480;11.102;2022-09-12T01:06:53;39.77;;;25.97;;
13660;SDS011;6903;49.480;11.102;2022-09-12T01:09:21;47.57;;;30.27;;
13660;SDS011;6903;49.480;11.102;2022-09-12T01:11:47;47.80;;;30.43;;
13660;SDS011;6903;49.480;11.102;2022-09-12T01:14:14;39.57;;;26.67;;
13660;SDS011;6903;49.480;11.102;2022-09-12T01:16:41;36.07;;;24.23;;
13660;SDS011;6903;49.480;11.102;2022-09-12T01:22:10;30.23;;;21.80;;
13660;SDS011;6903;49.480;11.102;2022-09-12T01:33:57;46.00;;;32.47;;
13660;SDS011;6903;49.480;11.102;2022-09-12T01:36:40;52.20;;;32.70;;
13660;SDS011;6903;49.480;11.102;2022-09-12T01:47:59;67.40;;;41.57;;
13660;SDS011;6903;49.480;11.102;2022-09-12T01:50:33;55.27;;;35.47;;
13660;SDS011;6903;49.480;11.102;2022-09-12T01:53:10;47.17;;;30.60;;
13660;SDS011;6903;49.480;11.102;2022-09-12T01:55:43;47.03;;;28.07;;
13660;SDS011;6903;49.480;11.102;2022-09-12T01:58:20;44.50;;;28.43;;
13660;SDS011;6903;49.480;11.102;2022-09-12T02:00:57;40.33;;;25.20;;
13660;SDS011;6903;49.480;11.102;2022-09-12T02:03:32;41.03;;;25.43;;
13660;SDS011;6903;49.480;11.102;2022-09-12T02:06:06;34.03;;;22.73;;
13660;SDS011;6903;49.480;11.102;2022-09-12T02:08:37;34.40;;;20.50;;
13660;SDS011;6903;49.480;11.102;2022-09-12T02:11:08;38.03;;;25.47;;
13660;SDS011;6903;49.480;11.102;2022-09-12T02:16:28;59.17;;;38.67;;
13660;SDS011;6903;49.480;11.102;2022-09-12T02:19:07;72.73;;;45.77;;
13660;SDS011;6903;49.480;11.102;2022-09-12T02:21:36;70.33;;;46.67;;
13660;SDS011;6903;49.480;11.102;2022-09-12T02:24:08;58.13;;;38.63;;
13660;SDS011;6903;49.480;11.102;2022-09-12T02:26:40;57.30;;;36.97;;
13660;SDS011;6903;49.480;11.102;2022-09-12T02:29:19;42.43;;;25.87;;
13660;SDS011;6903;49.480;11.102;2022-09-12T02:31:53;46.70;;;29.03;;
13660;SDS011;6903;49.480;11.102;2022-09-12T02:37:31;37.83;;;24.17;;
13660;SDS011;6903;49.480;11.102;2022-09-12T02:40:06;38.37;;;24.10;;
13660;SDS011;6903;49.480;11.102;2022-09-12T02:42:33;45.00;;;27.77;;
13660;SDS011;6903;49.480;11.102;2022-09-12T02:44:59;50.03;;;32.43;;
13660;SDS011;6903;49.480;11.102;2022-09-12T02:47:28;59.70;;;37.37;;
13660;SDS011;6903;49.480;11.102;2022-09-12T02:49:58;66.60;;;42.63;;
13660;SDS011;6903;49.480;11.102;2022-09-12T02:52:24;80.50;;;49.03;;
13660;SDS011;6903;49.480;11.102;2022-09-12T02:54:51;89.70;;;53.80;;
13660;SDS011;6903;49.480;11.102;2022-09-12T02:57:18;90.97;;;52.37;;
13660;SDS011;6903;49.480;11.102;2022-09-12T02:59:45;92.60;;;53.07;;
13660;SDS011;6903;49.480;11.102;2022-09-12T03:07:49;83.77;;;55.37;;
13660;SDS011;6903;49.480;11.102;2022-09-12T03:10:42;83.17;;;49.17;;
13660;SDS011;6903;49.480;11.102;2022-09-12T03:13:23;75.67;;;48.50;;
13660;SDS011;6903;49.480;11.102;2022-09-12T03:21:28;70.10;;;43.80;;
13660;SDS011;6903;49.480;11.102;2022-09-12T03:24:11;79.57;;;51.20;;
13660;SDS011;6903;49.480;11.102;2022-09-12T03:26:55;73.87;;;45.27;;
13660;SDS011;6903;49.480;11.102;2022-09-12T03:29:36;64.40;;;38.60;;
13660;SDS011;6903;49.480;11.102;2022-09-12T03:32:04;51.60;;;33.07;;
13660;SDS011;6903;49.480;11.102;2022-09-12T03:34:29;45.10;;;31.30;;
13660;SDS011;6903;49.480;11.102;2022-09-12T03:36:54;43.13;;;27.53;;
13660;SDS011;6903;49.480;11.102;2022-09-12T03:39:21;36.97;;;22.80;;
13660;SDS011;6903;49.480;11.102;2022-09-12T03:41:48;34.13;;;22.60;;
13660;SDS011;6903;49.480;11.102;2022-09-12T03:44:14;29.67;;;20.93;;
13660;SDS011;6903;49.480;11.102;2022-09-12T03:46:40;32.43;;;21.33;;
13660;SDS011;6903;49.480;11.102;2022-09-12T03:49:05;30.90;;;20.57;;
13660;SDS011;6903;49.480;11.102;2022-09-12T03:51:30;31.83;;;20.77;;
13660;SDS011;6903;49.480;11.102;2022-09-12T03:53:56;29.20;;;21.07;;
13660;SDS011;6903;49.480;11.102;2022-09-12T03:56:21;27.87;;;19.17;;
13660;SDS011;6903;49.480;11.102;2022-09-12T03:58:46;28.47;;;19.70;;
13660;SDS011;6903;49.480;11.102;2022-09-12T04:01:13;27.27;;;18.27;;
13660;SDS011;6903;49.480;11.102;2022-09-12T04:03:40;29.23;;;19.07;;
13660;SDS011;6903;49.480;11.102;2022-09-12T04:06:06;25.77;;;16.40;;
13660;SDS011;6903;49.480;11.102;2022-09-12T04:08:33;34.10;;;23.67;;
13660;SDS011;6903;49.480;11.102;2022-09-12T04:11:03;28.63;;;18.33;;
13660;SDS011;6903;49.480;11.102;2022-09-12T04:13:30;24.13;;;17.37;;
13660;SDS011;6903;49.480;11.102;2022-09-12T04:15:56;26.93;;;18.50;;
13660;SDS011;6903;49.480;11.102;2022-09-12T04:18:23;30.63;;;18.93;;
13660;SDS011;6903;49.480;11.102;2022-09-12T04:20:48;33.23;;;20.77;;
13660;SDS011;6903;49.480;11.102;2022-09-12T04:23:14;30.43;;;20.20;;
13660;SDS011;6903;49.480;11.102;2022-09-12T04:25:39;32.87;;;20.07;;
13660;SDS011;6903;49.480;11.102;2022-09-12T04:28:04;31.50;;;19.90;;
13660;SDS011;6903;49.480;11.102;2022-09-12T04:30:30;29.07;;;18.93;;
13660;SDS011;6903;49.480;11.102;2022-09-12T04:32:55;30.07;;;19.17;;
13660;SDS011;6903;49.480;11.102;2022-09-12T04:35:20;28.70;;;18.87;;
13660;SDS011;6903;49.480;11.102;2022-09-12T04:37:45;33.33;;;20.23;;
13660;SDS011;6903;49.480;11.102;2022-09-12T04:40:11;36.90;;;20.23;;
13660;SDS011;6903;49.480;11.102;2022-09-12T04:42:36;38.87;;;21.57;;
13660;SDS011;6903;49.480;11.102;2022-09-12T04:45:02;52.90;;;26.37;;
13660;SDS011;6903;49.480;11.102;2022-09-12T04:47:27;48.30;;;24.43;;
13660;SDS011;6903;49.480;11.102;2022-09-12T04:49:53;44.00;;;21.87;;
13660;SDS011;6903;49.480;11.102;2022-09-12T04:52:18;24.40;;;15.20;;
13660;SDS011;6903;49.480;11.102;2022-09-12T04:54:43;40.03;;;20.53;;
13660;SDS011;6903;49.480;11.102;2022-09-12T04:57:09;46.97;;;24.40;;
13660;SDS011;6903;49.480;11.102;2022-09-12T04:59:34;38.37;;;20.60;;
13660;SDS011;6903;49.480;11.102;2022-09-12T05:01:59;30.10;;;18.43;;
13660;SDS011;6903;49.480;11.102;2022-09-12T05:04:25;28.13;;;16.37;;
13660;SDS011;6903;49.480;11.102;2022-09-12T05:06:50;28.93;;;16.47;;
13660;SDS011;6903;49.480;11.102;2022-09-12T05:09:16;30.33;;;18.10;;
13660;SDS011;6903;49.480;11.102;2022-09-12T05:11:42;31.20;;;17.93;;
13660;SDS011;6903;49.480;11.102;2022-09-12T05:14:09;26.40;;;17.13;;
13660;SDS011;6903;49.480;11.102;2022-09-12T05:16:35;29.17;;;17.93;;
13660;SDS011;6903;49.480;11.102;2022-09-12T05:19:00;28.20;;;16.73;;
13660;SDS011;6903;49.480;11.102;2022-09-12T05:21:26;28.80;;;17.37;;
13660;SDS011;6903;49.480;11.102;2022-09-12T05:23:52;25.57;;;15.90;;
13660;SDS011;6903;49.480;11.102;2022-09-12T05:26:18;28.40;;;18.07;;
13660;SDS011;6903;49.480;11.102;2022-09-12T05:28:45;29.03;;;18.03;;
13660;SDS011;6903;49.480;11.102;2022-09-12T05:31:12;29.33;;;18.67;;
13660;SDS011;6903;49.480;11.102;2022-09-12T05:33:40;32.40;;;19.83;;
13660;SDS011;6903;49.480;11.102;2022-09-12T05:36:09;35.43;;;20.37;;
13660;SDS011;6903;49.480;11.102;2022-09-12T05:38:36;38.83;;;22.23;;
13660;SDS011;6903;49.480;11.102;2022-09-12T05:41:06;47.63;;;25.23;;
13660;SDS011;6903;49.480;11.102;2022-09-12T05:43:33;40.33;;;24.50;;
13660;SDS011;6903;49.480;11.102;2022-09-12T05:46:02;37.30;;;19.77;;
13660;SDS011;6903;49.480;11.102;2022-09-12T05:48:29;26.00;;;16.60;;
13660;SDS011;6903;49.480;11.102;2022-09-12T05:50:58;21.97;;;14.83;;
13660;SDS011;6903;49.480;11.102;2022-09-12T05:53:26;16.53;;;12.33;;
13660;SDS011;6903;49.480;11.102;2022-09-12T05:56:00;18.87;;;12.70;;
13660;SDS011;6903;49.480;11.102;2022-09-12T05:58:27;17.47;;;11.70;;
13660;SDS011;6903;49.480;11.102;2022-09-12T06:00:52;18.23;;;12.93;;
13660;SDS011;6903;49.480;11.102;2022-09-12T06:03:17;16.20;;;12.30;;
13660;SDS011;6903;49.480;11.102;2022-09-12T06:05:43;18.47;;;11.63;;
13660;SDS011;6903;49.480;11.102;2022-09-12T06:08:08;13.53;;;10.37;;
13660;SDS011;6903;49.480;11.102;2022-09-12T06:10:34;13.20;;;8.97;;
13660;SDS011;6903;49.480;11.102;2022-09-12T06:12:59;12.50;;;9.07;;
13660;SDS011;6903;49.480;11.102;2022-09-12T06:15:24;12.63;;;9.47;;
13660;SDS011;6903;49.480;11.102;2022-09-12T06:17:50;18.00;;;10.83;;
13660;SDS011;6903;49.480;11.102;2022-09-12T06:20:15;15.70;;;9.87;;
13660;SDS011;6903;49.480;11.102;2022-09-12T06:22:44;16.17;;;8.73;;
13660;SDS011;6903;49.480;11.102;2022-09-12T06:25:09;14.93;;;9.27;;
13660;SDS011;6903;49.480;11.102;2022-09-12T06:27:34;44.47;;;10.63;;
13660;SDS011;6903;49.480;11.102;2022-09-12T06:30:00;53.20;;;13.13;;
13660;SDS011;6903;49.480;11.102;2022-09-12T06:32:28;54.97;;;12.13;;
13660;SDS011;6903;49.480;11.102;2022-09-12T06:34:54;30.73;;;9.40;;
13660;SDS011;6903;49.480;11.102;2022-09-12T06:37:20;36.37;;;10.50;;
13660;SDS011;6903;49.480;11.102;2022-09-12T06:39:45;34.53;;;8.93;;
13660;SDS011;6903;49.480;11.102;2022-09-12T06:42:12;37.00;;;10.93;;
13660;SDS011;6903;49.480;11.102;2022-09-12T06:44:38;35.87;;;11.47;;
13660;SDS011;6903;49.480;11.102;2022-09-12T06:47:04;30.80;;;10.77;;
13660;SDS011;6903;49.480;11.102;2022-09-12T06:49:29;31.17;;;11.33;;
13660;SDS011;6903;49.480;11.102;2022-09-12T06:51:55;33.57;;;10.13;;
13660;SDS011;6903;49.480;11.102;2022-09-12T06:54:20;22.40;;;9.43;;
13660;SDS011;6903;49.480;11.102;2022-09-12T06:56:47;20.50;;;9.90;;
13660;SDS011;6903;49.480;11.102;2022-09-12T06:59:12;38.37;;;9.93;;
13660;SDS011;6903;49.480;11.102;2022-09-12T07:01:38;23.17;;;9.53;;
13660;SDS011;6903;49.480;11.102;2022-09-12T07:04:05;14.90;;;8.30;;
13660;SDS011;6903;49.480;11.102;2022-09-12T07:06:36;12.77;;;8.47;;
13660;SDS011;6903;49.480;11.102;2022-09-12T07:09:05;36.60;;;8.77;;
13660;SDS011;6903;49.480;11.102;2022-09-12T07:11:34;17.57;;;8.43;;
13660;SDS011;6903;49.480;11.102;2022-09-12T07:14:01;13.20;;;7.83;;
13660;SDS011;6903;49.480;11.102;2022-09-12T07:16:28;14.83;;;7.70;;
13660;SDS011;6903;49.480;11.102;2022-09-12T07:18:54;12.10;;;7.80;;
13660;SDS011;6903;49.480;11.102;2022-09-12T07:21:21;14.67;;;7.00;;
13660;SDS011;6903;49.480;11.102;2022-09-12T07:23:47;16.45;;;8.63;;
13660;SDS011;6903;49.480;11.102;2022-09-12T07:26:13;19.40;;;8.93;;
13660;SDS011;6903;49.480;11.102;2022-09-12T07:28:40;13.73;;;9.55;;
13660;SDS011;6903;49.480;11.102;2022-09-12T07:31:16;15.38;;;9.68;;
13660;SDS011;6903;49.480;11.102;2022-09-12T07:33:43;12.85;;;10.07;;
13660;SDS011;6903;49.480;11.102;2022-09-12T07:36:15;11.73;;;10.52;;
13660;SDS011;6903;49.480;11.102;2022-09-12T07:38:42;10.82;;;9.73;;
13660;SDS011;6903;49.480;11.102;2022-09-12T07:41:11;23.67;;;10.32;;
13660;SDS011;6903;49.480;11.102;2022-09-12T07:43:36;26.20;;;11.98;;
13660;SDS011;6903;49.480;11.102;2022-09-12T07:46:02;16.83;;;10.52;;
13660;SDS011;6903;49.480;11.102;2022-09-12T07:48:27;15.18;;;11.43;;
13660;SDS011;6903;49.480;11.102;2022-09-12T07:50:56;14.18;;;11.35;;
13660;SDS011;6903;49.480;11.102;2022-09-12T07:53:23;13.23;;;11.55;;
13660;SDS011;6903;49.480;11.102;2022-09-12T07:55:55;15.07;;;11.85;;
13660;SDS011;6903;49.480;11.102;2022-09-12T07:58:21;12.65;;;10.30;;
13660;SDS011;6903;49.480;11.102;2022-09-12T08:00:47;10.15;;;9.15;;
13660;SDS011;6903;49.480;11.102;2022-09-12T08:03:12;11.13;;;9.25;;
13660;SDS011;6903;49.480;11.102;2022-09-12T08:05:37;11.15;;;9.50;;
13660;SDS011;6903;49.480;11.102;2022-09-12T08:08:03;9.10;;;8.20;;
13660;SDS011;6903;49.480;11.102;2022-09-12T08:10:28;11.00;;;8.82;;
13660;SDS011;6903;49.480;11.102;2022-09-12T08:12:53;9.45;;;8.55;;
13660;SDS011;6903;49.480;11.102;2022-09-12T08:15:19;10.00;;;9.00;;
13660;SDS011;6903;49.480;11.102;2022-09-12T08:17:44;9.20;;;8.30;;
13660;SDS011;6903;49.480;11.102;2022-09-12T08:20:09;10.48;;;8.70;;
13660;SDS011;6903;49.480;11.102;2022-09-12T08:22:36;8.85;;;7.95;;
13660;SDS011;6903;49.480;11.102;2022-09-12T08:25:01;8.88;;;7.55;;
13660;SDS011;6903;49.480;11.102;2022-09-12T08:27:27;8.10;;;7.40;;
13660;SDS011;6903;49.480;11.102;2022-09-12T08:29:52;8.00;;;7.30;;
13660;SDS011;6903;49.480;11.102;2022-09-12T08:32:19;7.63;;;6.80;;
13660;SDS011;6903;49.480;11.102;2022-09-12T08:34:44;8.23;;;7.32;;
13660;SDS011;6903;49.480;11.102;2022-09-12T08:37:09;6.90;;;6.30;;
13660;SDS011;6903;49.480;11.102;2022-09-12T08:39:35;7.82;;;6.88;;
13660;SDS011;6903;49.480;11.102;2022-09-12T08:42:01;7.50;;;6.90;;
13660;SDS011;6903;49.480;11.102;2022-09-12T08:44:40;7.85;;;6.80;;
13660;SDS011;6903;49.480;11.102;2022-09-12T08:47:26;7.18;;;6.57;;
13660;SDS011;6903;49.480;11.102;2022-09-12T08:55:51;7.53;;;6.80;;
13660;SDS011;6903;49.480;11.102;2022-09-12T08:58:21;7.22;;;6.63;;
13660;SDS011;6903;49.480;11.102;2022-09-12T09:05:56;7.20;;;6.60;;
13660;SDS011;6903;49.480;11.102;2022-09-12T09:16:42;6.95;;;6.40;;
13660;SDS011;6903;49.480;11.102;2022-09-12T09:19:12;6.07;;;5.57;;
13660;SDS011;6903;49.480;11.102;2022-09-12T09:21:44;7.13;;;5.68;;
13660;SDS011;6903;49.480;11.102;2022-09-12T09:24:16;6.38;;;5.28;;
13660;SDS011;6903;49.480;11.102;2022-09-12T09:26:55;6.50;;;5.90;;
13660;SDS011;6903;49.480;11.102;2022-09-12T09:29:29;5.40;;;4.90;;
13660;SDS011;6903;49.480;11.102;2022-09-12T09:32:09;4.70;;;4.30;;
13660;SDS011;6903;49.480;11.102;2022-09-12T09:34:41;4.63;;;4.05;;
13660;SDS011;6903;49.480;11.102;2022-09-12T09:37:15;5.43;;;4.63;;
13660;SDS011;6903;49.480;11.102;2022-09-12T09:45:26;4.05;;;3.75;;
13660;SDS011;6903;49.480;11.102;2022-09-12T09:48:06;3.60;;;3.30;;
13660;SDS011;6903;49.480;11.102;2022-09-12T09:50:40;4.57;;;4.18;;
13660;SDS011;6903;49.480;11.102;2022-09-12T09:53:08;4.35;;;4.00;;
13660;SDS011;6903;49.480;11.102;2022-09-12T09:55:45;5.50;;;5.00;;
13660;SDS011;6903;49.480;11.102;2022-09-12T09:58:26;4.85;;;4.35;;
13660;SDS011;6903;49.480;11.102;2022-09-12T10:00:54;5.50;;;5.00;;
13660;SDS011;6903;49.480;11.102;2022-09-12T10:03:25;4.22;;;3.92;;
13660;SDS011;6903;49.480;11.102;2022-09-12T10:05:56;4.72;;;4.25;;
13660;SDS011;6903;49.480;11.102;2022-09-12T10:08:25;4.75;;;4.30;;
13660;SDS011;6903;49.480;11.102;2022-09-12T10:11:06;4.07;;;3.78;;
13660;SDS011;6903;49.480;11.102;2022-09-12T10:13:53;5.05;;;4.28;;
13660;SDS011;6903;49.480;11.102;2022-09-12T10:16:31;5.30;;;3.55;;
13660;SDS011;6903;49.480;11.102;2022-09-12T10:18:59;5.00;;;4.03;;
13660;SDS011;6903;49.480;11.102;2022-09-12T10:21:33;5.68;;;4.03;;
13660;SDS011;6903;49.480;11.102;2022-09-12T10:26:50;4.18;;;3.50;;
13660;SDS011;6903;49.480;11.102;2022-09-12T10:29:26;5.03;;;4.10;;
13660;SDS011;6903;49.480;11.102;2022-09-12T10:31:57;3.92;;;3.53;;
13660;SDS011;6903;49.480;11.102;2022-09-12T10:34:28;4.03;;;3.72;;
13660;SDS011;6903;49.480;11.102;2022-09-12T10:37:00;4.45;;;3.88;;
13660;SDS011;6903;49.480;11.102;2022-09-12T10:39:28;4.30;;;3.90;;
13660;SDS011;6903;49.480;11.102;2022-09-12T10:41:55;5.20;;;4.68;;
13660;SDS011;6903;49.480;11.102;2022-09-12T10:44:31;4.28;;;3.97;;
13660;SDS011;6903;49.480;11.102;2022-09-12T10:46:58;4.63;;;4.28;;
13660;SDS011;6903;49.480;11.102;2022-09-12T10:51:55;4.00;;;3.22;;
13660;SDS011;6903;49.480;11.102;2022-09-12T10:54:24;4.38;;;3.60;;
13660;SDS011;6903;49.480;11.102;2022-09-12T10:57:07;3.70;;;3.40;;
13660;SDS011;6903;49.480;11.102;2022-09-12T10:59:58;5.30;;;3.90;;
13660;SDS011;6903;49.480;11.102;2022-09-12T11:02:27;4.30;;;3.92;;
13660;SDS011;6903;49.480;11.102;2022-09-12T11:04:59;4.63;;;3.97;;
13660;SDS011;6903;49.480;11.102;2022-09-12T11:07:50;8.38;;;5.95;;
13660;SDS011;6903;49.480;11.102;2022-09-12T11:16:18;6.57;;;4.55;;
13660;SDS011;6903;49.480;11.102;2022-09-12T11:29:45;5.10;;;4.63;;
13660;SDS011;6903;49.480;11.102;2022-09-12T11:42:54;4.10;;;3.80;;
13660;SDS011;6903;49.480;11.102;2022-09-12T11:45:25;4.30;;;3.90;;
13660;SDS011;6903;49.480;11.102;2022-09-12T11:47:58;5.35;;;4.80;;
13660;SDS011;6903;49.480;11.102;2022-09-12T11:50:29;5.32;;;4.57;;
13660;SDS011;6903;49.480;11.102;2022-09-12T11:53:01;4.70;;;4.30;;
13660;SDS011;6903;49.480;11.102;2022-09-12T11:58:38;6.00;;;5.25;;
13660;SDS011;6903;49.480;11.102;2022-09-12T12:03:37;5.30;;;4.55;;
13660;SDS011;6903;49.480;11.102;2022-09-12T12:06:09;5.97;;;5.47;;
13660;SDS011;6903;49.480;11.102;2022-09-12T12:08:41;5.82;;;4.40;;
13660;SDS011;6903;49.480;11.102;2022-09-12T12:11:08;5.07;;;4.65;;
13660;SDS011;6903;49.480;11.102;2022-09-12T12:13:58;4.85;;;4.35;;
13660;SDS011;6903;49.480;11.102;2022-09-12T12:16:26;4.70;;;4.20;;
13660;SDS011;6903;49.480;11.102;2022-09-12T12:18:54;4.20;;;3.80;;
13660;SDS011;6903;49.480;11.102;2022-09-12T12:34:26;4.40;;;4.03;;
13660;SDS011;6903;49.480;11.102;2022-09-12T12:36:54;4.15;;;3.55;;
13660;SDS011;6903;49.480;11.102;2022-09-12T12:45:00;4.22;;;3.83;;
13660;SDS011;6903;49.480;11.102;2022-09-12T12:47:42;4.80;;;4.20;;
13660;SDS011;6903;49.480;11.102;2022-09-12T12:55:16;4.85;;;4.35;;
13660;SDS011;6903;49.480;11.102;2022-09-12T12:57:48;4.10;;;3.80;;
13660;SDS011;6903;49.480;11.102;2022-09-12T13:05:29;4.13;;;3.75;;
13660;SDS011;6903;49.480;11.102;2022-09-12T13:08:10;4.90;;;4.40;;
13660;SDS011;6903;49.480;11.102;2022-09-12T13:10:59;4.88;;;4.00;;
13660;SDS011;6903;49.480;11.102;2022-09-12T13:16:09;5.53;;;5.07;;
13660;SDS011;6903;49.480;11.102;2022-09-12T13:18:42;4.97;;;4.30;;
13660;SDS011;6903;49.480;11.102;2022-09-12T13:21:14;4.45;;;4.00;;
13660;SDS011;6903;49.480;11.102;2022-09-12T13:23:43;4.93;;;3.85;;
13660;SDS011;6903;49.480;11.102;2022-09-12T13:26:23;3.50;;;3.20;;
13660;SDS011;6903;49.480;11.102;2022-09-12T13:28:50;4.53;;;4.13;;
13660;SDS011;6903;49.480;11.102;2022-09-12T13:31:33;4.35;;;3.95;;
13660;SDS011;6903;49.480;11.102;2022-09-12T13:33:59;4.95;;;4.20;;
13660;SDS011;6903;49.480;11.102;2022-09-12T13:36:32;4.80;;;4.00;;
13660;SDS011;6903;49.480;11.102;2022-09-12T13:39:43;4.47;;;4.07;;
13660;SDS011;6903;49.480;11.102;2022-09-12T13:45:03;4.18;;;3.78;;
13660;SDS011;6903;49.480;11.102;2022-09-12T13:47:33;4.15;;;3.83;;
13660;SDS011;6903;49.480;11.102;2022-09-12T13:50:02;3.97;;;3.67;;
13660;SDS011;6903;49.480;11.102;2022-09-12T13:52:31;4.15;;;3.42;;
13660;SDS011;6903;49.480;11.102;2022-09-12T13:54:58;4.13;;;3.75;;
13660;SDS011;6903;49.480;11.102;2022-09-12T13:57:26;3.92;;;3.58;;
13660;SDS011;6903;49.480;11.102;2022-09-12T13:59:57;4.20;;;3.80;;
13660;SDS011;6903;49.480;11.102;2022-09-12T14:02:24;4.43;;;3.88;;
13660;SDS011;6903;49.480;11.102;2022-09-12T14:04:52;6.07;;;4.65;;
13660;SDS011;6903;49.480;11.102;2022-09-12T14:10:21;4.28;;;3.88;;
13660;SDS011;6903;49.480;11.102;2022-09-12T14:12:47;4.70;;;3.92;;
13660;SDS011;6903;49.480;11.102;2022-09-12T14:15:21;4.25;;;3.85;;
13660;SDS011;6903;49.480;11.102;2022-09-12T14:17:50;4.38;;;3.97;;
13660;SDS011;6903;49.480;11.102;2022-09-12T14:20:17;4.15;;;3.85;;
13660;SDS011;6903;49.480;11.102;2022-09-12T14:22:44;4.55;;;4.15;;
13660;SDS011;6903;49.480;11.102;2022-09-12T14:25:14;4.00;;;3.70;;
13660;SDS011;6903;49.480;11.102;2022-09-12T14:27:43;5.43;;;4.85;;
13660;SDS011;6903;49.480;11.102;2022-09-12T14:30:19;4.45;;;4.05;;
13660;SDS011;6903;49.480;11.102;2022-09-12T14:35:37;4.15;;;3.85;;
13660;SDS011;6903;49.480;11.102;2022-09-12T14:38:06;4.47;;;4.15;;
13660;SDS011;6903;49.480;11.102;2022-09-12T14:40:46;4.57;;;4.07;;
13660;SDS011;6903;49.480;11.102;2022-09-12T14:43:20;5.18;;;4.25;;
13660;SDS011;6903;49.480;11.102;2022-09-12T14:45:59;4.32;;;3.92;;
13660;SDS011;6903;49.480;11.102;2022-09-12T14:48:30;4.25;;;3.80;;
13660;SDS011;6903;49.480;11.102;2022-09-12T14:50:59;4.32;;;3.95;;
13660;SDS011;6903;49.480;11.102;2022-09-12T14:53:35;5.55;;;4.25;;
13660;SDS011;6903;49.480;11.102;2022-09-12T14:58:32;4.78;;;4.25;;
13660;SDS011;6903;49.480;11.102;2022-09-12T15:03:27;4.57;;;4.18;;
13660;SDS011;6903;49.480;11.102;2022-09-12T15:05:58;4.75;;;4.35;;
13660;SDS011;6903;49.480;11.102;2022-09-12T15:08:25;4.53;;;4.15;;
13660;SDS011;6903;49.480;11.102;2022-09-12T15:10:51;4.78;;;4.38;;
13660;SDS011;6903;49.480;11.102;2022-09-12T15:13:17;6.18;;;4.03;;
13660;SDS011;6903;49.480;11.102;2022-09-12T15:15:50;4.22;;;3.92;;
13660;SDS011;6903;49.480;11.102;2022-09-12T15:18:20;4.40;;;3.97;;
13660;SDS011;6903;49.480;11.102;2022-09-12T15:20:47;4.00;;;3.70;;
13660;SDS011;6903;49.480;11.102;2022-09-12T15:26:04;4.35;;;3.95;;
13660;SDS011;6903;49.480;11.102;2022-09-12T15:28:30;4.38;;;3.97;;
13660;SDS011;6903;49.480;11.102;2022-09-12T15:31:03;4.80;;;4.40;;
13660;SDS011;6903;49.480;11.102;2022-09-12T15:33:31;4.22;;;3.83;;
13660;SDS011;6903;49.480;11.102;2022-09-12T15:35:56;5.72;;;4.10;;
13660;SDS011;6903;49.480;11.102;2022-09-12T15:38:21;4.40;;;4.00;;
13660;SDS011;6903;49.480;11.102;2022-09-12T15:40:50;4.32;;;3.92;;
13660;SDS011;6903;49.480;11.102;2022-09-12T15:43:22;4.35;;;3.70;;
13660;SDS011;6903;49.480;11.102;2022-09-12T15:45:50;4.32;;;3.92;;
13660;SDS011;6903;49.480;11.102;2022-09-12T15:48:16;4.20;;;3.80;;
13660;SDS011;6903;49.480;11.102;2022-09-12T15:50:42;4.90;;;4.32;;
13660;SDS011;6903;49.480;11.102;2022-09-12T15:53:14;5.47;;;4.97;;
13660;SDS011;6903;49.480;11.102;2022-09-12T15:55:41;5.93;;;4.95;;
13660;SDS011;6903;49.480;11.102;2022-09-12T15:58:07;4.78;;;4.28;;
13660;SDS011;6903;49.480;11.102;2022-09-12T16:00:33;4.68;;;4.28;;
13660;SDS011;6903;49.480;11.102;2022-09-12T16:02:58;4.30;;;3.90;;
13660;SDS011;6903;49.480;11.102;2022-09-12T16:05:24;7.03;;;4.47;;
13660;SDS011;6903;49.480;11.102;2022-09-12T16:07:51;4.95;;;4.50;;
13660;SDS011;6903;49.480;11.102;2022-09-12T16:10:19;4.25;;;3.80;;
13660;SDS011;6903;49.480;11.102;2022-09-12T16:12:47;3.70;;;3.40;;
13660;SDS011;6903;49.480;11.102;2022-09-12T16:15:13;3.85;;;3.55;;
13660;SDS011;6903;49.480;11.102;2022-09-12T16:17:40;4.50;;;4.13;;
13660;SDS011;6903;49.480;11.102;2022-09-12T16:20:06;6.00;;;4.60;;
13660;SDS011;6903;49.480;11.102;2022-09-12T16:22:32;4.20;;;3.75;;
13660;SDS011;6903;49.480;11.102;2022-09-12T16:24:57;4.38;;;3.97;;
13660;SDS011;6903;49.480;11.102;2022-09-12T16:27:23;4.47;;;4.10;;
13660;SDS011;6903;49.480;11.102;2022-09-12T16:29:48;4.85;;;4.18;;
13660;SDS011;6903;49.480;11.102;2022-09-12T16:32:15;4.75;;;4.00;;
13660;SDS011;6903;49.480;11.102;2022-09-12T16:34:40;5.57;;;5.07;;
13660;SDS011;6903;49.480;11.102;2022-09-12T16:37:06;4.30;;;3.90;;
13660;SDS011;6903;49.480;11.102;2022-09-12T16:39:31;4.90;;;4.50;;
13660;SDS011;6903;49.480;11.102;2022-09-12T16:41:58;5.50;;;4.20;;
13660;SDS011;6903;49.480;11.102;2022-09-12T16:44:23;5.38;;;4.20;;
13660;SDS011;6903;49.480;11.102;2022-09-12T16:46:48;5.53;;;4.60;;
13660;SDS011;6903;49.480;11.102;2022-09-12T16:49:14;4.93;;;4.53;;
13660;SDS011;6903;49.480;11.102;2022-09-12T16:51:39;5.00;;;4.50;;
13660;SDS011;6903;49.480;11.102;2022-09-12T16:54:11;5.43;;;4.93;;
13660;SDS011;6903;49.480;11.102;2022-09-12T16:56:36;4.53;;;4.13;;
13660;SDS011;6903;49.480;11.102;2022-09-12T16:59:02;4.65;;;4.25;;
13660;SDS011;6903;49.480;11.102;2022-09-12T17:01:29;4.40;;;4.00;;
13660;SDS011;6903;49.480;11.102;2022-09-12T17:03:55;4.88;;;4.47;;
13660;SDS011;6903;49.480;11.102;2022-09-12T17:06:22;4.45;;;4.05;;
13660;SDS011;6903;49.480;11.102;2022-09-12T17:08:50;4.43;;;3.92;;
13660;SDS011;6903;49.480;11.102;2022-09-12T17:11:17;4.72;;;4.32;;
13660;SDS011;6903;49.480;11.102;2022-09-12T17:13:47;10.30;;;9.40;;
13660;SDS011;6903;49.480;11.102;2022-09-12T17:16:13;16.58;;;15.27;;
13660;SDS011;6903;49.480;11.102;2022-09-12T17:18:39;18.15;;;16.35;;
13660;SDS011;6903;49.480;11.102;2022-09-12T17:21:05;9.20;;;7.85;;
13660;SDS011;6903;49.480;11.102;2022-09-12T17:23:31;5.82;;;4.60;;